Time;durP1;ratioP1;P1;durP2;ratioP2;P2;SDS_P1;SDS_P2;PMS_P1;PMS_P2;Temp;Humidity;BMP_temperature;BMP_pressure;BME280_temperature;BME280_humidity;BME280_pressure;Samples;Min_cycle;Max_cycle;Signal;HPM_P1;HPM_P2
2023/12/04 00:01:35;;;;;;;35.72;14.63;;;;;;;-1.01;100.00;101119.97;5006331;28;20516;-71
2023/12/04 00:04:01;;;;;;;35.80;14.95;;;;;;;-1.02;100.00;101114.06;5008673;28;20029;-72
2023/12/04 00:06:27;;;;;;;38.15;13.95;;;;;;;-1.06;100.00;101117.63;5012738;28;20038;-72
2023/12/04 00:08:52;;;;;;;35.67;14.80;;;;;;;-1.11;100.00;101111.09;5013926;28;20045;-72
2023/12/04 00:11:18;;;;;;;38.83;15.60;;;;;;;-1.08;100.00;101111.78;5004731;28;20034;-72
2023/12/04 00:13:43;;;;;;;35.33;14.80;;;;;;;-1.03;100.00;101098.84;5007151;28;20030;-72
2023/12/04 00:16:09;;;;;;;34.80;15.00;;;;;;;-1.06;100.00;101096.44;5008603;28;20513;-72
2023/12/04 00:18:34;;;;;;;31.98;13.40;;;;;;;-1.04;100.00;101104.81;5004208;28;20389;-73
2023/12/04 00:21:00;;;;;;;34.65;14.35;;;;;;;-1.04;100.00;101103.09;5005416;28;20080;-72
2023/12/04 00:23:25;;;;;;;29.23;13.23;;;;;;;-1.04;100.00;101090.38;5009475;28;20030;-72
2023/12/04 00:25:51;;;;;;;35.33;14.05;;;;;;;-1.04;100.00;101085.28;4991282;28;20045;-73
2023/12/04 00:28:16;;;;;;;34.88;15.38;;;;;;;-1.05;100.00;101093.84;5007790;28;20037;-71
2023/12/04 00:30:42;;;;;;;32.17;13.00;;;;;;;-1.08;100.00;101077.88;5011252;28;20038;-73
2023/12/04 00:33:07;;;;;;;31.17;13.18;;;;;;;-1.02;100.00;101085.22;5009457;28;20030;-72
2023/12/04 00:35:33;;;;;;;30.05;13.18;;;;;;;-0.94;100.00;101089.94;4985171;28;20034;-71
2023/12/04 00:37:58;;;;;;;32.85;14.13;;;;;;;-1.00;100.00;101091.91;5004885;28;20500;-72
2023/12/04 00:40:24;;;;;;;31.33;12.93;;;;;;;-1.03;100.00;101078.50;4985199;28;20676;-72
2023/12/04 00:42:50;;;;;;;35.17;14.20;;;;;;;-1.02;100.00;101073.31;5010129;28;20022;-71
2023/12/04 00:45:15;;;;;;;32.70;13.25;;;;;;;-1.04;100.00;101080.19;5012737;28;20041;-71
2023/12/04 00:47:41;;;;;;;30.85;13.18;;;;;;;-1.00;100.00;101074.06;5009187;28;20038;-71
2023/12/04 00:50:06;;;;;;;31.42;13.68;;;;;;;-0.99;100.00;101069.81;5012937;28;20040;-73
2023/12/04 00:52:32;;;;;;;30.55;13.73;;;;;;;-1.01;100.00;101069.06;5016525;28;20694;-71
2023/12/04 00:54:57;;;;;;;32.70;12.77;;;;;;;-1.06;100.00;101073.53;5012920;28;20034;-72
2023/12/04 00:57:23;;;;;;;31.80;13.43;;;;;;;-1.07;100.00;101072.72;5006290;28;20073;-72
2023/12/04 00:59:48;;;;;;;28.65;12.57;;;;;;;-0.99;100.00;101065.53;5008291;28;20038;-72
2023/12/04 01:02:14;;;;;;;28.95;12.50;;;;;;;-1.00;100.00;101063.91;5012979;28;20447;-72
2023/12/04 01:04:42;;;;;;;32.22;13.95;;;;;;;-0.99;100.00;101059.63;5013985;28;20037;-71
2023/12/04 01:07:08;;;;;;;26.95;12.32;;;;;;;-1.01;100.00;101059.69;5025114;28;21007;-72
2023/12/04 01:09:37;;;;;;;27.00;12.20;;;;;;;-0.99;100.00;101052.78;5008127;28;20109;-72
2023/12/04 01:12:02;;;;;;;29.83;12.73;;;;;;;-0.97;100.00;101050.19;5007732;28;20034;-73
2023/12/04 01:14:28;;;;;;;31.00;13.23;;;;;;;-0.98;100.00;101057.00;5017852;28;20034;-73
2023/12/04 01:16:53;;;;;;;32.90;13.27;;;;;;;-0.99;100.00;101049.44;4992252;28;20034;-73
2023/12/04 01:19:19;;;;;;;33.72;13.43;;;;;;;-0.99;100.00;101042.59;5005987;28;20022;-72
2023/12/04 01:21:45;;;;;;;27.13;12.27;;;;;;;-0.94;100.00;101049.19;4993129;28;20034;-72
2023/12/04 01:24:11;;;;;;;30.98;12.15;;;;;;;-1.00;100.00;101042.69;5003172;28;20038;-73
2023/12/04 01:26:36;;;;;;;27.35;12.20;;;;;;;-1.04;100.00;101043.72;5013293;28;20041;-73
2023/12/04 01:29:02;;;;;;;34.65;14.80;;;;;;;-1.04;100.00;101043.72;5013439;28;20034;-72
2023/12/04 01:31:27;;;;;;;29.40;12.05;;;;;;;-0.96;100.00;101039.09;5016470;28;20042;-72
2023/12/04 01:33:53;;;;;;;32.70;12.48;;;;;;;-1.03;100.00;101033.47;5011576;28;20050;-72
2023/12/04 01:36:18;;;;;;;34.47;13.30;;;;;;;-1.10;100.00;101033.84;5011787;28;20034;-73
2023/12/04 01:38:44;;;;;;;31.73;12.75;;;;;;;-1.07;100.00;101032.00;4993142;28;20492;-73
2023/12/04 01:41:09;;;;;;;32.17;12.35;;;;;;;-1.07;100.00;101029.44;5012345;28;20037;-72
2023/12/04 01:43:34;;;;;;;32.63;13.23;;;;;;;-1.04;100.00;101018.28;5008215;28;20026;-72
2023/12/04 01:46:01;;;;;;;34.80;14.15;;;;;;;-1.09;100.00;101022.75;5009144;28;20049;-72
2023/12/04 01:48:28;;;;;;;33.25;13.07;;;;;;;-1.11;100.00;101019.47;5010980;28;20030;-72
2023/12/04 01:50:54;;;;;;;31.80;14.82;;;;;;;-0.99;100.00;101022.25;5006510;28;20084;-72
2023/12/04 01:53:19;;;;;;;29.83;12.60;;;;;;;-1.02;100.00;101014.78;4993489;28;20040;-72
2023/12/04 01:55:46;;;;;;;28.60;12.18;;;;;;;-1.05;100.00;101012.38;5009272;28;20070;-73
2023/12/04 01:58:11;;;;;;;27.45;11.85;;;;;;;-1.06;100.00;101009.91;5005444;28;20037;-72
2023/12/04 02:00:37;;;;;;;33.35;12.50;;;;;;;-0.99;100.00;101006.97;5010513;28;20034;-73
2023/12/04 02:03:03;;;;;;;25.88;11.50;;;;;;;-1.07;100.00;101006.53;5012702;28;20037;-72
2023/12/04 02:05:29;;;;;;;28.83;11.95;;;;;;;-1.05;100.00;101002.19;5011607;28;20117;-73
2023/12/04 02:07:55;;;;;;;28.10;12.65;;;;;;;-1.04;100.00;101008.09;5011876;28;20037;-72
2023/12/04 02:10:21;;;;;;;32.05;12.05;;;;;;;-1.03;100.00;101000.38;4999140;28;20034;-73
2023/12/04 02:12:46;;;;;;;25.75;11.23;;;;;;;-0.99;100.00;101001.88;5007347;28;20511;-72
2023/12/04 02:15:13;;;;;;;27.13;11.43;;;;;;;-1.03;100.00;101002.13;5007866;28;20046;-72
2023/12/04 02:17:39;;;;;;;28.40;12.00;;;;;;;-1.12;100.00;101000.84;5008470;28;20113;-73
2023/12/04 02:20:05;;;;;;;28.13;11.93;;;;;;;-1.15;100.00;100995.06;5009019;28;20029;-72
2023/12/04 02:22:31;;;;;;;31.73;12.82;;;;;;;-1.04;100.00;100991.09;5010568;28;20040;-72
2023/12/04 02:24:59;;;;;;;29.08;13.07;;;;;;;-1.06;100.00;100987.00;5006738;28;20042;-72
2023/12/04 02:27:33;;;;;;;32.05;13.85;;;;;;;-1.04;100.00;100991.09;5010246;28;20040;-71
2023/12/04 02:30:00;;;;;;;26.55;10.88;;;;;;;-1.08;100.00;100983.69;5005289;28;20040;-72
2023/12/04 02:32:30;;;;;;;27.90;12.00;;;;;;;-1.09;100.00;100972.69;5005198;28;20046;-73
2023/12/04 02:34:56;;;;;;;29.52;12.00;;;;;;;-1.01;100.00;100983.31;5008517;28;20674;-72
2023/12/04 02:37:23;;;;;;;28.90;11.93;;;;;;;-1.02;99.72;100961.31;4993816;28;20117;-73
2023/12/04 02:39:52;;;;;;;26.95;11.32;;;;;;;-0.99;99.77;100962.88;5012743;28;20035;-72
2023/12/04 02:42:19;;;;;;;22.83;11.10;;;;;;;-1.01;99.19;100964.69;5010149;28;20042;-72
2023/12/04 02:44:44;;;;;;;23.55;10.77;;;;;;;-0.95;99.31;100961.81;5009662;28;20739;-72
2023/12/04 02:47:10;;;;;;;25.08;10.98;;;;;;;-0.99;98.68;100945.88;5009534;28;20034;-72
2023/12/04 02:49:35;;;;;;;24.45;10.80;;;;;;;-1.00;98.99;100956.97;5006930;28;20023;-72
2023/12/04 02:52:02;;;;;;;26.73;10.65;;;;;;;-0.95;98.71;100950.81;5006578;28;20057;-72
2023/12/04 02:54:28;;;;;;;23.05;10.80;;;;;;;-1.00;98.43;100946.78;5012017;28;20017;-72
2023/12/04 02:56:53;;;;;;;22.48;10.07;;;;;;;-1.03;98.55;100946.13;5009897;28;20596;-73
2023/12/04 02:59:19;;;;;;;27.73;11.57;;;;;;;-1.06;99.17;100936.91;4997403;28;20045;-72
2023/12/04 03:01:44;;;;;;;26.52;10.98;;;;;;;-0.99;98.22;100940.78;5011833;28;20046;-72
2023/12/04 03:04:10;;;;;;;27.42;11.57;;;;;;;-1.01;98.00;100934.13;5013660;28;20038;-72
2023/12/04 03:06:35;;;;;;;28.02;11.23;;;;;;;-1.02;98.30;100930.78;5008379;28;20048;-73
2023/12/04 03:09:01;;;;;;;28.40;11.23;;;;;;;-1.04;97.99;100917.25;5013723;28;20034;-72
2023/12/04 03:11:26;;;;;;;23.98;10.82;;;;;;;-1.05;98.05;100915.63;5008976;28;20041;-74
2023/12/04 03:13:52;;;;;;;23.25;10.43;;;;;;;-1.08;97.98;100923.41;5009794;28;20477;-73
2023/12/04 03:16:18;;;;;;;26.20;10.70;;;;;;;-1.05;98.31;100913.09;5012117;28;20040;-73
2023/12/04 03:18:44;;;;;;;25.80;11.02;;;;;;;-1.01;97.70;100913.75;5013632;28;20037;-73
2023/12/04 03:21:11;;;;;;;26.75;11.88;;;;;;;-1.07;97.95;100914.91;5010685;28;20042;-72
2023/12/04 03:23:36;;;;;;;27.33;11.52;;;;;;;-1.01;97.08;100908.66;5005876;28;20478;-71
2023/12/04 03:26:02;;;;;;;25.85;10.98;;;;;;;-1.06;97.48;100911.44;5006275;28;20030;-72
2023/12/04 03:28:28;;;;;;;25.80;11.13;;;;;;;-1.07;97.14;100909.81;5009555;28;20038;-72
2023/12/04 03:30:53;;;;;;;26.63;10.82;;;;;;;-1.06;97.38;100906.34;5009973;28;20094;-72
2023/12/04 03:33:19;;;;;;;22.95;9.93;;;;;;;-1.03;96.48;100897.75;5011965;28;20030;-72
2023/12/04 03:35:44;;;;;;;29.48;11.40;;;;;;;-1.08;96.79;100899.69;5004356;28;20041;-72
2023/12/04 03:38:09;;;;;;;24.52;10.02;;;;;;;-1.08;96.92;100900.50;5010381;28;20046;-72
2023/12/04 03:40:35;;;;;;;27.52;11.13;;;;;;;-1.04;96.60;100891.00;5008630;28;20030;-72
2023/12/04 03:43:00;;;;;;;21.38;10.40;;;;;;;-1.04;96.25;100896.91;5010583;28;20040;-73
2023/12/04 03:45:26;;;;;;;23.20;10.77;;;;;;;-1.03;95.90;100885.03;5011024;28;20045;-72
2023/12/04 03:47:52;;;;;;;25.42;11.00;;;;;;;-1.05;95.92;100887.63;5010500;28;20029;-73
2023/12/04 03:50:17;;;;;;;25.77;10.63;;;;;;;-1.10;96.10;100881.13;4991124;28;20041;-72
2023/12/04 03:52:43;;;;;;;24.60;10.43;;;;;;;-1.04;95.96;100871.44;5006874;28;20025;-72
2023/12/04 03:55:09;;;;;;;22.95;10.52;;;;;;;-1.00;95.69;100877.22;5008619;28;20041;-72
2023/12/04 03:57:34;;;;;;;26.85;11.88;;;;;;;-1.09;96.00;100882.78;5009602;28;20044;-72
2023/12/04 04:00:00;;;;;;;25.98;11.02;;;;;;;-1.02;95.97;100877.31;5008199;28;20511;-72
2023/12/04 04:02:25;;;;;;;25.80;10.82;;;;;;;-1.06;95.85;100875.81;5013033;28;20037;-72
2023/12/04 04:04:50;;;;;;;23.13;11.40;;;;;;;-1.04;95.84;100871.44;5002282;28;20034;-72
2023/12/04 04:07:20;;;;;;;23.98;12.02;;;;;;;-1.00;94.98;100867.03;5012031;28;20049;-72
2023/12/04 04:09:45;;;;;;;24.40;10.93;;;;;;;-0.96;95.38;100854.97;5007090;28;20030;-72
2023/12/04 04:12:11;;;;;;;23.30;11.38;;;;;;;-1.01;95.08;100857.75;5006034;28;20045;-72
2023/12/04 04:14:37;;;;;;;24.65;10.98;;;;;;;-1.04;94.78;100855.38;5009508;28;20435;-72
2023/12/04 04:17:03;;;;;;;23.42;10.50;;;;;;;-1.01;94.64;100850.94;5006464;28;20100;-72
2023/12/04 04:19:28;;;;;;;24.17;10.05;;;;;;;-1.02;93.94;100853.56;4996753;28;20033;-72
2023/12/04 04:21:54;;;;;;;28.38;11.15;;;;;;;-1.03;94.04;100847.66;5005236;28;20100;-72
2023/12/04 04:24:19;;;;;;;23.13;10.38;;;;;;;-1.05;93.93;100844.38;5011861;28;20026;-73
2023/12/04 04:26:45;;;;;;;20.52;9.60;;;;;;;-1.01;93.08;100843.28;5007960;28;20373;-72
2023/12/04 04:29:10;;;;;;;21.27;10.15;;;;;;;-1.05;92.99;100841.00;4992897;28;20557;-73
2023/12/04 04:31:36;;;;;;;22.83;9.82;;;;;;;-1.05;93.37;100836.72;5010148;28;20600;-73
2023/12/04 04:34:01;;;;;;;23.95;10.05;;;;;;;-1.02;92.25;100833.19;5009500;28;20134;-72
2023/12/04 04:36:27;;;;;;;21.42;10.23;;;;;;;-0.95;92.85;100834.50;5006733;28;20400;-72
2023/12/04 04:38:52;;;;;;;20.95;9.75;;;;;;;-1.08;92.58;100828.44;5012526;28;20400;-72
2023/12/04 04:41:18;;;;;;;22.75;9.60;;;;;;;-1.06;92.52;100836.81;5006175;28;20091;-72
2023/12/04 04:43:43;;;;;;;25.05;10.45;;;;;;;-1.12;93.02;100832.84;5007332;28;20049;-72
2023/12/04 04:46:09;;;;;;;22.42;10.68;;;;;;;-1.05;92.27;100828.28;5011150;28;20033;-73
2023/12/04 04:48:35;;;;;;;22.77;10.45;;;;;;;-1.02;92.67;100823.84;5012169;28;21575;-72
2023/12/04 04:51:00;;;;;;;22.10;11.23;;;;;;;-1.03;92.66;100819.66;5017835;28;20527;-72
2023/12/04 04:53:26;;;;;;;22.48;10.13;;;;;;;-1.09;93.50;100830.16;5012376;28;20216;-72
2023/12/04 04:55:51;;;;;;;22.05;9.00;;;;;;;-1.10;93.29;100827.69;5015000;28;20041;-73
2023/12/04 04:58:17;;;;;;;22.20;10.00;;;;;;;-1.05;92.46;100816.38;5008273;28;20088;-72
2023/12/04 05:00:46;;;;;;;23.52;11.25;;;;;;;-1.13;92.35;100812.56;5013917;28;20038;-72
2023/12/04 05:03:12;;;;;;;24.00;10.45;;;;;;;-1.19;92.64;100814.56;4994948;28;20029;-72
2023/12/04 05:05:38;;;;;;;22.83;10.85;;;;;;;-1.12;91.92;100804.84;5011045;28;20042;-72
2023/12/04 05:08:03;;;;;;;23.05;10.30;;;;;;;-1.10;92.77;100814.97;4995886;28;20505;-72
2023/12/04 05:10:29;;;;;;;21.25;10.07;;;;;;;-1.11;92.10;100810.75;4997932;28;20512;-72
2023/12/04 05:12:54;;;;;;;23.65;10.75;;;;;;;-1.10;91.93;100808.13;4995925;28;20030;-72
2023/12/04 05:15:19;;;;;;;23.77;10.88;;;;;;;-1.15;92.98;100801.66;5013959;28;20034;-72
2023/12/04 05:17:45;;;;;;;24.10;11.05;;;;;;;-1.18;92.58;100802.66;5011126;28;20042;-72
2023/12/04 05:20:10;;;;;;;24.75;10.32;;;;;;;-1.18;92.76;100800.09;4995355;28;20050;-72
2023/12/04 05:22:36;;;;;;;21.15;9.48;;;;;;;-1.12;92.19;100798.94;4999212;28;20040;-73
2023/12/04 05:25:01;;;;;;;22.23;9.93;;;;;;;-1.20;92.38;100789.19;4993481;28;20034;-72
2023/12/04 05:27:27;;;;;;;22.17;10.23;;;;;;;-1.15;92.12;100789.75;5018512;28;20029;-72
2023/12/04 05:29:52;;;;;;;20.38;9.95;;;;;;;-1.16;91.67;100783.03;5011585;28;20492;-72
2023/12/04 05:32:18;;;;;;;24.52;10.98;;;;;;;-1.18;92.50;100782.28;5007974;28;20104;-72
2023/12/04 05:34:43;;;;;;;23.90;11.23;;;;;;;-1.16;92.04;100782.22;5011952;28;20032;-71
2023/12/04 05:37:08;;;;;;;25.75;10.52;;;;;;;-1.19;92.91;100793.34;5016110;28;20034;-72
2023/12/04 05:39:34;;;;;;;21.50;9.63;;;;;;;-1.14;92.68;100793.94;5013415;28;20022;-71
2023/12/04 05:41:59;;;;;;;22.15;10.95;;;;;;;-1.20;92.99;100784.91;5011667;28;20038;-72
2023/12/04 05:44:25;;;;;;;26.23;11.02;;;;;;;-1.16;93.45;100785.56;5010810;28;20528;-72
2023/12/04 05:46:50;;;;;;;27.38;12.02;;;;;;;-1.16;92.66;100777.94;4992674;28;20493;-73
2023/12/04 05:49:16;;;;;;;25.85;10.38;;;;;;;-1.14;92.82;100785.50;5012531;28;20064;-72
2023/12/04 05:51:41;;;;;;;23.90;10.80;;;;;;;-1.13;93.13;100782.88;5010631;28;20041;-72
2023/12/04 05:54:08;;;;;;;25.15;10.18;;;;;;;-1.14;92.49;100776.13;5014629;28;20026;-73
2023/12/04 05:56:33;;;;;;;24.92;11.20;;;;;;;-1.14;91.80;100781.22;5006588;28;20133;-73
2023/12/04 05:58:58;;;;;;;23.90;10.68;;;;;;;-1.14;93.16;100781.22;5001608;28;20033;-72
2023/12/04 06:01:24;;;;;;;25.55;11.73;;;;;;;-1.14;92.52;100786.31;5008577;28;20037;-72
2023/12/04 06:03:49;;;;;;;26.27;11.65;;;;;;;-1.14;92.54;100762.59;5010870;28;20033;-72
2023/12/04 06:06:15;;;;;;;23.25;10.73;;;;;;;-1.09;92.77;100761.44;5014831;28;20037;-73
2023/12/04 06:08:40;;;;;;;27.70;11.45;;;;;;;-1.12;92.85;100764.13;5012416;28;20076;-72
2023/12/04 06:11:06;;;;;;;22.23;11.35;;;;;;;-1.09;92.43;100758.06;5010986;28;20518;-72
2023/12/04 06:13:31;;;;;;;25.27;11.38;;;;;;;-1.10;91.80;100747.06;5016447;28;20507;-73
2023/12/04 06:15:57;;;;;;;26.33;12.15;;;;;;;-1.11;91.66;100745.44;5010851;28;20092;-72
2023/12/04 06:18:22;;;;;;;28.42;11.60;;;;;;;-1.16;92.50;100744.03;5011611;28;20049;-72
2023/12/04 06:20:48;;;;;;;31.27;12.15;;;;;;;-1.24;93.99;100742.72;5010160;28;20038;-72
2023/12/04 06:23:14;;;;;;;26.17;12.32;;;;;;;-1.13;94.23;100742.16;5008227;28;20060;-72
2023/12/04 06:25:40;;;;;;;28.85;12.45;;;;;;;-1.11;94.36;100731.84;5006668;28;20053;-72
2023/12/04 06:28:06;;;;;;;22.67;10.95;;;;;;;-1.10;94.44;100741.16;4997137;28;20041;-72
2023/12/04 06:30:32;;;;;;;26.83;10.82;;;;;;;-1.01;93.69;100738.94;5012512;28;20038;-73
2023/12/04 06:32:57;;;;;;;27.60;12.38;;;;;;;-1.04;93.66;100723.81;5013809;28;20496;-72
2023/12/04 06:35:23;;;;;;;26.85;12.02;;;;;;;-1.11;93.41;100731.84;5011912;28;20038;-72
2023/12/04 06:37:51;;;;;;;33.35;12.52;;;;;;;-1.04;93.49;100717.91;5008294;28;20116;-73
2023/12/04 06:40:17;;;;;;;27.63;11.82;;;;;;;-1.01;92.87;100716.00;5008259;28;20128;-71
2023/12/04 06:42:43;;;;;;;29.38;13.07;;;;;;;-1.10;93.76;100708.06;5012665;28;20108;-72
2023/12/04 06:45:09;;;;;;;28.08;12.48;;;;;;;-1.04;93.22;100708.53;5008546;28;20046;-71
2023/12/04 06:47:35;;;;;;;28.70;12.20;;;;;;;-1.02;93.21;100699.13;5010837;28;20041;-73
2023/12/04 06:50:00;;;;;;;27.15;12.43;;;;;;;-1.06;92.97;100702.72;5007173;28;20049;-72
2023/12/04 06:52:26;;;;;;;28.13;12.85;;;;;;;-1.08;93.48;100698.63;5016084;28;20033;-72
2023/12/04 06:54:51;;;;;;;27.55;12.48;;;;;;;-1.09;93.55;100696.97;4992826;28;20636;-72
2023/12/04 06:57:16;;;;;;;26.70;12.40;;;;;;;-1.10;93.55;100688.50;5009954;28;20512;-72
2023/12/04 06:59:42;;;;;;;30.73;13.30;;;;;;;-1.12;93.63;100687.78;4991690;28;20026;-72
2023/12/04 07:02:08;;;;;;;27.00;13.00;;;;;;;-1.13;93.91;100690.41;5015108;28;20037;-71
2023/12/04 07:04:33;;;;;;;30.13;14.20;;;;;;;-1.14;94.40;100694.69;5011680;28;20033;-72
2023/12/04 07:07:04;;;;;;;27.70;13.20;;;;;;;-1.08;93.14;100689.25;5009084;28;20038;-72
2023/12/04 07:09:31;;;;;;;31.58;13.38;;;;;;;-1.08;93.33;100690.97;5007202;28;20480;-72
2023/12/04 07:11:56;;;;;;;30.10;12.35;;;;;;;-1.05;92.94;100688.28;5008210;28;20038;-72
2023/12/04 07:14:22;;;;;;;34.35;13.57;;;;;;;-1.10;93.97;100680.06;5011774;28;20034;-71
2023/12/04 07:16:47;;;;;;;41.22;18.38;;;;;;;-1.05;94.59;100680.66;5008721;28;20038;-72
2023/12/04 07:19:14;;;;;;;30.13;14.43;;;;;;;-1.04;94.66;100680.53;5005006;28;20088;-72
2023/12/04 07:21:40;;;;;;;37.65;14.00;;;;;;;-1.06;93.97;100673.91;5010307;28;20695;-72
2023/12/04 07:24:06;;;;;;;26.92;12.18;;;;;;;-1.05;94.33;100663.63;5013393;28;20036;-74
2023/12/04 07:26:34;;;;;;;46.53;17.90;;;;;;;-1.10;94.92;100660.53;5007368;28;20408;-72
2023/12/04 07:28:59;;;;;;;31.10;13.15;;;;;;;-1.04;94.91;100667.00;5015953;28;20036;-72
2023/12/04 07:31:26;;;;;;;33.40;13.85;;;;;;;-1.03;95.41;100666.09;5006847;28;20408;-73
2023/12/04 07:33:53;;;;;;;28.10;12.45;;;;;;;-1.00;94.51;100669.31;5010396;28;20425;-72
2023/12/04 07:36:19;;;;;;;30.75;13.52;;;;;;;-1.05;95.09;100673.00;5008118;28;20129;-72
2023/12/04 07:38:45;;;;;;;29.27;13.50;;;;;;;-0.93;94.18;100677.41;5008148;28;20564;-72
2023/12/04 07:41:10;;;;;;;29.38;13.52;;;;;;;-0.90;93.48;100678.97;5015852;28;20040;-73
2023/12/04 07:43:36;;;;;;;31.08;14.13;;;;;;;-0.91;93.63;100679.88;4994947;28;20029;-72
2023/12/04 07:46:03;;;;;;;27.90;11.95;;;;;;;-0.88;92.20;100674.63;5006951;28;20511;-72
2023/12/04 07:48:29;;;;;;;29.35;13.52;;;;;;;-0.86;92.20;100672.81;5009092;28;20036;-72
2023/12/04 07:50:55;;;;;;;30.02;14.18;;;;;;;-0.88;92.98;100670.34;5006772;28;20041;-72
2023/12/04 07:53:20;;;;;;;33.30;14.20;;;;;;;-0.79;92.73;100680.03;5007292;28;20132;-72
2023/12/04 07:55:48;;;;;;;33.53;13.30;;;;;;;-0.86;92.76;100680.44;5022251;28;20042;-72
2023/12/04 07:58:14;;;;;;;28.50;13.70;;;;;;;-0.86;92.56;100675.34;5013705;28;20038;-72
2023/12/04 08:00:39;;;;;;;31.55;13.88;;;;;;;-0.81;92.18;100679.28;5010347;28;20034;-73
2023/12/04 08:03:04;;;;;;;31.42;13.90;;;;;;;-0.76;91.86;100670.56;5011404;28;20044;-73
2023/12/04 08:05:31;;;;;;;26.23;12.40;;;;;;;-0.73;91.43;100670.41;4998720;28;20064;-72
2023/12/04 08:07:57;;;;;;;29.20;13.02;;;;;;;-0.76;91.46;100653.56;5006612;28;20499;-73
2023/12/04 08:10:23;;;;;;;31.42;13.25;;;;;;;-0.76;91.03;100663.75;5004240;28;20042;-72
2023/12/04 08:12:48;;;;;;;29.65;14.40;;;;;;;-0.86;91.19;100663.44;5013714;28;20030;-72
2023/12/04 08:15:14;;;;;;;30.80;13.70;;;;;;;-0.85;92.07;100654.06;5008750;28;20042;-72
2023/12/04 08:17:39;;;;;;;32.75;13.98;;;;;;;-0.83;92.34;100652.25;5007624;28;20030;-73
2023/12/04 08:20:06;;;;;;;30.65;13.40;;;;;;;-0.79;92.77;100652.00;5011179;28;20037;-72
2023/12/04 08:22:31;;;;;;;27.60;12.05;;;;;;;-0.70;91.45;100643.00;5007878;28;20038;-73
2023/12/04 08:24:58;;;;;;;31.63;12.27;;;;;;;-0.66;90.63;100641.94;5005696;28;20045;-73
2023/12/04 08:27:24;;;;;;;24.58;12.35;;;;;;;-0.68;90.45;100643.78;5010452;28;20160;-72
2023/12/04 08:29:50;;;;;;;28.10;11.43;;;;;;;-0.54;89.08;100635.34;5005667;28;20041;-73
2023/12/04 08:32:15;;;;;;;24.50;11.30;;;;;;;-0.59;89.19;100632.22;5009746;28;20411;-72
2023/12/04 08:34:41;;;;;;;28.33;12.20;;;;;;;-0.53;89.36;100614.03;5002759;28;20027;-73
2023/12/04 08:37:06;;;;;;;27.55;12.93;;;;;;;-0.52;89.30;100623.31;5008103;28;20041;-72
2023/12/04 08:39:32;;;;;;;26.73;12.65;;;;;;;-0.59;89.12;100607.56;5007157;28;20034;-72
2023/12/04 08:41:57;;;;;;;26.48;11.48;;;;;;;-0.59;89.11;100611.84;5010267;28;20552;-72
2023/12/04 08:44:23;;;;;;;25.60;11.98;;;;;;;-0.61;88.73;100616.19;5014415;28;20065;-72
2023/12/04 08:46:49;;;;;;;25.20;10.93;;;;;;;-0.65;88.51;100613.00;5007906;28;20506;-72
2023/12/04 08:49:14;;;;;;;23.73;11.00;;;;;;;-0.65;88.03;100615.56;5016089;28;20036;-72
2023/12/04 08:51:40;;;;;;;25.52;12.02;;;;;;;-0.62;88.49;100612.84;5011333;28;20626;-72
2023/12/04 08:54:07;;;;;;;24.40;11.80;;;;;;;-0.66;89.81;100603.75;5008526;28;20034;-72
2023/12/04 08:56:32;;;;;;;23.85;11.57;;;;;;;-0.64;88.77;100601.94;4988521;28;20088;-72
2023/12/04 08:58:58;;;;;;;26.27;11.30;;;;;;;-0.60;88.94;100597.47;5012364;28;20029;-73
2023/12/04 09:01:23;;;;;;;23.27;10.40;;;;;;;-0.67;89.57;100591.91;5010302;28;20042;-72
2023/12/04 09:03:49;;;;;;;27.00;11.68;;;;;;;-0.65;89.20;100590.09;4987940;28;20033;-72
2023/12/04 09:06:15;;;;;;;29.00;12.13;;;;;;;-0.65;88.34;100597.72;5011853;28;20126;-73
2023/12/04 09:08:41;;;;;;;23.52;10.82;;;;;;;-0.63;87.48;100597.66;5010144;28;20037;-72
2023/12/04 09:11:06;;;;;;;27.10;11.88;;;;;;;-0.67;88.71;100589.38;5006624;28;20117;-72
2023/12/04 09:13:33;;;;;;;26.15;11.65;;;;;;;-0.56;88.61;100575.19;5005571;28;20046;-72
2023/12/04 09:15:59;;;;;;;24.15;11.27;;;;;;;-0.52;87.84;100567.28;4993641;28;20070;-72
2023/12/04 09:18:25;;;;;;;24.30;11.55;;;;;;;-0.57;87.78;100565.91;5009225;28;20696;-72
2023/12/04 09:20:50;;;;;;;26.85;11.90;;;;;;;-0.60;88.44;100567.72;5010360;28;20048;-72
2023/12/04 09:23:15;;;;;;;29.77;11.88;;;;;;;-0.53;87.25;100578.34;5010575;28;20060;-71
2023/12/04 09:25:41;;;;;;;22.95;10.30;;;;;;;-0.48;87.20;100561.09;5012077;28;20053;-72
2023/12/04 09:28:07;;;;;;;25.90;11.85;;;;;;;-0.43;87.21;100561.63;5011087;28;20038;-72
2023/12/04 09:30:35;;;;;;;26.48;11.05;;;;;;;-0.40;85.86;100551.28;5017697;28;20041;-72
2023/12/04 09:33:01;;;;;;;23.98;11.07;;;;;;;-0.43;85.34;100560.84;5012913;28;20492;-72
2023/12/04 09:35:26;;;;;;;23.80;11.93;;;;;;;-0.35;84.45;100563.72;5013990;28;20029;-72
2023/12/04 09:37:52;;;;;;;25.17;11.05;;;;;;;-0.36;85.08;100551.88;5011286;28;20401;-72
2023/12/04 09:40:18;;;;;;;28.75;10.75;;;;;;;-0.38;85.60;100552.91;5007940;28;20489;-72
2023/12/04 09:42:43;;;;;;;24.63;11.05;;;;;;;-0.42;86.23;100549.72;4993977;28;20028;-73
2023/12/04 09:45:09;;;;;;;25.02;10.98;;;;;;;-0.38;85.82;100558.81;5011260;28;20493;-72
2023/12/04 09:47:35;;;;;;;24.13;10.45;;;;;;;-0.40;86.42;100547.88;5012576;28;20080;-72
2023/12/04 09:50:01;;;;;;;25.33;12.15;;;;;;;-0.41;86.21;100551.38;5015876;28;20037;-72
2023/12/04 09:52:28;;;;;;;26.77;12.98;;;;;;;-0.44;85.80;100546.44;5016997;28;20029;-71
2023/12/04 09:54:53;;;;;;;27.60;11.80;;;;;;;-0.38;86.49;100537.59;5004891;28;20048;-72
2023/12/04 09:57:19;;;;;;;31.17;13.40;;;;;;;-0.33;85.71;100540.72;4996488;28;20030;-72
2023/12/04 09:59:45;;;;;;;28.67;11.85;;;;;;;-0.32;85.81;100534.69;5013427;28;20117;-72
2023/12/04 10:02:11;;;;;;;27.38;11.32;;;;;;;-0.33;85.50;100533.06;5009800;28;20053;-72
2023/12/04 10:04:37;;;;;;;22.48;11.13;;;;;;;-0.40;86.43;100533.44;5008161;28;20646;-72
2023/12/04 10:07:04;;;;;;;24.50;11.35;;;;;;;-0.38;86.83;100527.41;5013933;28;20034;-72
2023/12/04 10:09:30;;;;;;;31.13;11.40;;;;;;;-0.34;85.76;100511.88;5013037;28;20038;-72
2023/12/04 10:11:56;;;;;;;26.45;11.05;;;;;;;-0.35;86.64;100515.31;5010946;28;20089;-72
2023/12/04 10:14:22;;;;;;;27.63;11.05;;;;;;;-0.34;86.61;100504.22;5014382;28;20105;-72
2023/12/04 10:16:49;;;;;;;20.92;10.15;;;;;;;-0.35;85.48;100496.66;5007207;28;20377;-72
2023/12/04 10:19:27;;;;;;;27.95;11.23;;;;;;;-0.35;85.63;100502.56;5011685;28;20503;-72
2023/12/04 10:21:55;;;;;;;23.63;11.85;;;;;;;-0.23;86.59;100490.81;5005888;28;20165;-72
2023/12/04 10:24:35;;;;;;;23.42;11.43;;;;;;;-0.28;85.90;100498.75;5012858;28;20026;-71
2023/12/04 10:27:11;;;;;;;26.23;11.57;;;;;;;-0.29;85.63;100499.66;5011206;28;20058;-73
2023/12/04 10:29:47;;;;;;;23.60;12.07;;;;;;;-0.21;85.62;100496.63;5011303;28;20036;-72
2023/12/04 10:32:13;;;;;;;22.85;10.38;;;;;;;-0.17;85.34;100499.81;5012203;28;20045;-72
2023/12/04 10:34:45;;;;;;;23.02;10.63;;;;;;;-0.28;85.13;100480.91;5012327;28;20036;-72
2023/12/04 10:37:11;;;;;;;23.85;11.38;;;;;;;-0.25;85.21;100483.25;5007409;28;20034;-72
2023/12/04 10:39:47;;;;;;;23.98;11.23;;;;;;;-0.23;84.74;100485.72;5011888;28;20112;-72
2023/12/04 10:42:22;;;;;;;24.15;10.05;;;;;;;-0.22;85.29;100484.81;5011591;28;20069;-72
2023/12/04 10:44:48;;;;;;;24.88;10.98;;;;;;;-0.26;84.39;100481.63;5010441;28;20038;-72
2023/12/04 10:47:13;;;;;;;28.63;13.00;;;;;;;-0.20;85.94;100471.06;5010828;28;20037;-72
2023/12/04 10:49:39;;;;;;;27.13;11.30;;;;;;;-0.12;85.96;100477.41;5014530;28;20034;-72
2023/12/04 10:52:05;;;;;;;26.75;11.15;;;;;;;-0.12;84.99;100464.66;5010892;28;20042;-72
2023/12/04 10:54:32;;;;;;;24.77;11.23;;;;;;;-0.22;86.05;100454.22;5009817;28;20076;-72
2023/12/04 10:57:04;;;;;;;29.40;11.88;;;;;;;-0.11;87.40;100462.03;4998568;28;20037;-72
2023/12/04 10:59:38;;;;;;;25.97;11.70;;;;;;;-0.05;86.28;100465.94;4992464;28;20453;-72
2023/12/04 11:02:08;;;;;;;25.52;11.18;;;;;;;0.03;86.88;100450.97;4991144;28;20073;-73